sensor_id;sensor_type;location;lat;lon;timestamp;pressure;altitude;pressure_sealevel;temperature;humidity
6387;BME280;3226;42.162;24.756;2023-05-14T00:01:37;100307.16;;;12.67;61.13
6387;BME280;3226;42.162;24.756;2023-05-14T00:04:06;100303.97;;;12.52;63.39
6387;BME280;3226;42.162;24.756;2023-05-14T00:06:34;100305.13;;;12.70;62.08
6387;BME280;3226;42.162;24.756;2023-05-14T00:09:02;100304.06;;;12.73;62.52
6387;BME280;3226;42.162;24.756;2023-05-14T00:11:29;100298.72;;;12.52;62.93
6387;BME280;3226;42.162;24.756;2023-05-14T00:13:57;100298.91;;;12.71;62.63
6387;BME280;3226;42.162;24.756;2023-05-14T00:16:25;100301.25;;;12.86;62.24
6387;BME280;3226;42.162;24.756;2023-05-14T00:18:55;100295.50;;;12.92;61.84
6387;BME280;3226;42.162;24.756;2023-05-14T00:21:23;100296.50;;;12.80;62.62
6387;BME280;3226;42.162;24.756;2023-05-14T00:23:51;100300.53;;;12.84;62.55
6387;BME280;3226;42.162;24.756;2023-05-14T00:26:19;100291.50;;;12.77;62.61
6387;BME280;3226;42.162;24.756;2023-05-14T00:28:47;100288.75;;;12.67;62.46
6387;BME280;3226;42.162;24.756;2023-05-14T00:31:15;100289.06;;;12.52;62.86
6387;BME280;3226;42.162;24.756;2023-05-14T00:33:43;100291.69;;;12.52;62.68
6387;BME280;3226;42.162;24.756;2023-05-14T00:36:12;100302.81;;;12.56;62.56
6387;BME280;3226;42.162;24.756;2023-05-14T00:38:40;100296.81;;;12.54;62.70
6387;BME280;3226;42.162;24.756;2023-05-14T00:41:08;100298.47;;;12.55;62.78
6387;BME280;3226;42.162;24.756;2023-05-14T00:43:36;100301.75;;;12.80;61.73
6387;BME280;3226;42.162;24.756;2023-05-14T00:46:04;100296.88;;;12.75;62.12
6387;BME280;3226;42.162;24.756;2023-05-14T00:48:32;100271.47;;;12.64;61.94
6387;BME280;3226;42.162;24.756;2023-05-14T00:51:00;100261.69;;;12.66;61.42
6387;BME280;3226;42.162;24.756;2023-05-14T00:53:30;100274.41;;;12.71;61.52
6387;BME280;3226;42.162;24.756;2023-05-14T00:55:58;100268.44;;;12.69;62.15
6387;BME280;3226;42.162;24.756;2023-05-14T00:58:26;100260.28;;;12.51;62.34
6387;BME280;3226;42.162;24.756;2023-05-14T01:00:54;100261.94;;;12.63;62.96
6387;BME280;3226;42.162;24.756;2023-05-14T01:03:22;100262.34;;;12.47;63.49
6387;BME280;3226;42.162;24.756;2023-05-14T01:05:57;100253.66;;;12.68;63.47
6387;BME280;3226;42.162;24.756;2023-05-14T01:08:34;100254.81;;;12.42;63.81
6387;BME280;3226;42.162;24.756;2023-05-14T01:11:06;100256.28;;;12.35;64.43
6387;BME280;3226;42.162;24.756;2023-05-14T01:13:43;100254.00;;;12.42;63.38
6387;BME280;3226;42.162;24.756;2023-05-14T01:16:12;100249.91;;;12.49;63.41
6387;BME280;3226;42.162;24.756;2023-05-14T01:18:42;100244.91;;;12.46;63.79
6387;BME280;3226;42.162;24.756;2023-05-14T01:21:26;100244.06;;;12.46;63.98
6387;BME280;3226;42.162;24.756;2023-05-14T01:23:59;100239.50;;;12.48;62.58
6387;BME280;3226;42.162;24.756;2023-05-14T01:26:27;100240.44;;;12.58;61.62
6387;BME280;3226;42.162;24.756;2023-05-14T01:29:00;100251.53;;;12.62;60.98
6387;BME280;3226;42.162;24.756;2023-05-14T01:31:30;100249.94;;;12.70;60.90
6387;BME280;3226;42.162;24.756;2023-05-14T01:34:00;100250.31;;;12.66;61.03
6387;BME280;3226;42.162;24.756;2023-05-14T01:36:30;100250.00;;;12.59;61.94
6387;BME280;3226;42.162;24.756;2023-05-14T01:38:59;100248.94;;;12.50;62.27
6387;BME280;3226;42.162;24.756;2023-05-14T01:41:30;100246.28;;;12.62;62.02
6387;BME280;3226;42.162;24.756;2023-05-14T01:43:58;100237.53;;;12.40;62.99
6387;BME280;3226;42.162;24.756;2023-05-14T01:46:30;100221.69;;;12.30;63.19
6387;BME280;3226;42.162;24.756;2023-05-14T01:48:58;100215.25;;;12.23;63.35
6387;BME280;3226;42.162;24.756;2023-05-14T01:51:26;100226.19;;;12.39;62.57
6387;BME280;3226;42.162;24.756;2023-05-14T01:53:56;100228.38;;;12.23;63.72
6387;BME280;3226;42.162;24.756;2023-05-14T01:56:24;100229.09;;;12.25;63.09
6387;BME280;3226;42.162;24.756;2023-05-14T01:58:52;100226.47;;;12.25;63.34
6387;BME280;3226;42.162;24.756;2023-05-14T02:01:21;100211.28;;;12.28;63.47
6387;BME280;3226;42.162;24.756;2023-05-14T02:03:49;100223.84;;;12.25;63.79
6387;BME280;3226;42.162;24.756;2023-05-14T02:06:17;100224.22;;;12.20;63.99
6387;BME280;3226;42.162;24.756;2023-05-14T02:08:45;100221.56;;;12.20;63.76
6387;BME280;3226;42.162;24.756;2023-05-14T02:11:14;100232.22;;;12.07;64.41
6387;BME280;3226;42.162;24.756;2023-05-14T02:13:42;100217.56;;;12.05;64.01
6387;BME280;3226;42.162;24.756;2023-05-14T02:16:10;100243.94;;;12.03;64.54
6387;BME280;3226;42.162;24.756;2023-05-14T02:18:38;100252.03;;;12.11;63.95
6387;BME280;3226;42.162;24.756;2023-05-14T02:21:06;100243.66;;;12.18;63.71
6387;BME280;3226;42.162;24.756;2023-05-14T02:23:34;100241.31;;;12.03;64.58
6387;BME280;3226;42.162;24.756;2023-05-14T02:26:08;100251.56;;;11.95;64.86
6387;BME280;3226;42.162;24.756;2023-05-14T02:28:37;100241.28;;;11.80;65.99
6387;BME280;3226;42.162;24.756;2023-05-14T02:31:05;100234.63;;;11.65;66.29
6387;BME280;3226;42.162;24.756;2023-05-14T02:33:33;100230.31;;;11.75;66.90
6387;BME280;3226;42.162;24.756;2023-05-14T02:36:02;100238.19;;;11.64;66.31
6387;BME280;3226;42.162;24.756;2023-05-14T02:38:30;100238.06;;;11.54;66.39
6387;BME280;3226;42.162;24.756;2023-05-14T02:40:58;100237.97;;;11.55;66.44
6387;BME280;3226;42.162;24.756;2023-05-14T02:43:26;100234.63;;;11.53;67.61
6387;BME280;3226;42.162;24.756;2023-05-14T02:45:55;100224.59;;;11.47;66.55
6387;BME280;3226;42.162;24.756;2023-05-14T02:48:23;100245.34;;;11.62;65.80
6387;BME280;3226;42.162;24.756;2023-05-14T02:50:51;100251.09;;;11.67;65.41
6387;BME280;3226;42.162;24.756;2023-05-14T02:53:19;100265.03;;;11.56;66.02
6387;BME280;3226;42.162;24.756;2023-05-14T02:55:48;100272.78;;;11.69;65.62
6387;BME280;3226;42.162;24.756;2023-05-14T02:58:16;100277.69;;;11.74;64.90
6387;BME280;3226;42.162;24.756;2023-05-14T03:00:50;100281.59;;;11.68;65.81
6387;BME280;3226;42.162;24.756;2023-05-14T03:03:20;100280.41;;;11.61;66.58
6387;BME280;3226;42.162;24.756;2023-05-14T03:05:49;100283.03;;;11.61;67.74
6387;BME280;3226;42.162;24.756;2023-05-14T03:08:17;100287.19;;;11.40;68.64
6387;BME280;3226;42.162;24.756;2023-05-14T03:10:45;100295.88;;;11.41;68.13
6387;BME280;3226;42.162;24.756;2023-05-14T03:13:13;100288.72;;;11.43;68.02
6387;BME280;3226;42.162;24.756;2023-05-14T03:15:43;100290.44;;;11.55;67.43
6387;BME280;3226;42.162;24.756;2023-05-14T03:18:12;100301.59;;;11.46;67.73
6387;BME280;3226;42.162;24.756;2023-05-14T03:20:42;100294.44;;;11.48;67.56
6387;BME280;3226;42.162;24.756;2023-05-14T03:23:10;100286.47;;;11.50;67.48
6387;BME280;3226;42.162;24.756;2023-05-14T03:25:38;100278.84;;;11.47;68.28
6387;BME280;3226;42.162;24.756;2023-05-14T03:28:05;100283.84;;;11.50;67.83
6387;BME280;3226;42.162;24.756;2023-05-14T03:30:34;100287.53;;;11.47;67.84
6387;BME280;3226;42.162;24.756;2023-05-14T03:33:02;100293.97;;;11.43;68.06
6387;BME280;3226;42.162;24.756;2023-05-14T03:35:30;100295.88;;;11.41;69.16
6387;BME280;3226;42.162;24.756;2023-05-14T03:37:59;100292.66;;;11.37;69.13
6387;BME280;3226;42.162;24.756;2023-05-14T03:40:27;100294.09;;;11.41;68.90
6387;BME280;3226;42.162;24.756;2023-05-14T03:42:55;100284.09;;;11.35;69.58
6387;BME280;3226;42.162;24.756;2023-05-14T03:45:23;100309.00;;;11.41;69.96
6387;BME280;3226;42.162;24.756;2023-05-14T03:47:52;100311.41;;;11.55;68.64
6387;BME280;3226;42.162;24.756;2023-05-14T03:50:20;100315.81;;;11.55;69.36
6387;BME280;3226;42.162;24.756;2023-05-14T03:52:51;100314.03;;;11.67;68.97
6387;BME280;3226;42.162;24.756;2023-05-14T03:55:20;100303.66;;;11.54;69.25
6387;BME280;3226;42.162;24.756;2023-05-14T03:57:48;100310.19;;;11.37;70.49
6387;BME280;3226;42.162;24.756;2023-05-14T04:00:17;100304.91;;;11.25;71.38
6387;BME280;3226;42.162;24.756;2023-05-14T04:02:45;100303.03;;;11.39;69.95
6387;BME280;3226;42.162;24.756;2023-05-14T04:05:13;100294.34;;;11.38;69.74
6387;BME280;3226;42.162;24.756;2023-05-14T04:07:41;100303.25;;;11.36;70.31
6387;BME280;3226;42.162;24.756;2023-05-14T04:10:11;100312.94;;;11.35;69.96
6387;BME280;3226;42.162;24.756;2023-05-14T04:12:41;100309.38;;;11.48;69.79
6387;BME280;3226;42.162;24.756;2023-05-14T04:15:09;100301.81;;;11.32;70.41
6387;BME280;3226;42.162;24.756;2023-05-14T04:17:37;100304.34;;;11.33;70.47
6387;BME280;3226;42.162;24.756;2023-05-14T04:20:07;100312.31;;;11.32;70.72
6387;BME280;3226;42.162;24.756;2023-05-14T04:22:35;100311.94;;;11.25;70.97
6387;BME280;3226;42.162;24.756;2023-05-14T04:25:03;100306.97;;;11.33;70.86
6387;BME280;3226;42.162;24.756;2023-05-14T04:27:32;100303.28;;;11.47;70.03
6387;BME280;3226;42.162;24.756;2023-05-14T04:30:01;100295.53;;;11.57;70.21
6387;BME280;3226;42.162;24.756;2023-05-14T04:32:29;100294.72;;;11.56;70.75
6387;BME280;3226;42.162;24.756;2023-05-14T04:34:57;100300.22;;;11.65;69.76
6387;BME280;3226;42.162;24.756;2023-05-14T04:37:25;100310.97;;;11.84;69.43
6387;BME280;3226;42.162;24.756;2023-05-14T04:39:53;100312.63;;;11.85;69.84
6387;BME280;3226;42.162;24.756;2023-05-14T04:42:20;100306.22;;;12.01;69.08
6387;BME280;3226;42.162;24.756;2023-05-14T04:44:48;100304.31;;;12.03;69.28
6387;BME280;3226;42.162;24.756;2023-05-14T04:47:18;100327.59;;;12.08;68.77
6387;BME280;3226;42.162;24.756;2023-05-14T04:49:46;100324.22;;;12.17;68.04
6387;BME280;3226;42.162;24.756;2023-05-14T04:52:14;100337.97;;;12.21;68.17
6387;BME280;3226;42.162;24.756;2023-05-14T04:54:42;100338.78;;;12.10;69.61
6387;BME280;3226;42.162;24.756;2023-05-14T04:57:10;100325.06;;;12.06;70.02
6387;BME280;3226;42.162;24.756;2023-05-14T04:59:38;100319.94;;;12.05;69.70
6387;BME280;3226;42.162;24.756;2023-05-14T05:02:06;100316.22;;;12.07;69.50
6387;BME280;3226;42.162;24.756;2023-05-14T05:04:36;100306.56;;;12.19;69.36
6387;BME280;3226;42.162;24.756;2023-05-14T05:07:04;100313.69;;;12.28;69.49
6387;BME280;3226;42.162;24.756;2023-05-14T05:09:32;100323.03;;;12.21;70.60
6387;BME280;3226;42.162;24.756;2023-05-14T05:12:00;100334.72;;;12.28;70.51
6387;BME280;3226;42.162;24.756;2023-05-14T05:14:28;100324.56;;;12.35;71.01
6387;BME280;3226;42.162;24.756;2023-05-14T05:16:55;100321.69;;;12.38;71.09
6387;BME280;3226;42.162;24.756;2023-05-14T05:19:24;100307.88;;;12.25;71.44
6387;BME280;3226;42.162;24.756;2023-05-14T05:22:09;100313.00;;;12.38;71.72
6387;BME280;3226;42.162;24.756;2023-05-14T05:24:37;100313.00;;;12.15;71.58
6387;BME280;3226;42.162;24.756;2023-05-14T05:27:05;100327.81;;;12.05;71.74
6387;BME280;3226;42.162;24.756;2023-05-14T05:29:33;100345.34;;;12.04;71.80
6387;BME280;3226;42.162;24.756;2023-05-14T05:32:02;100343.88;;;12.00;71.77
6387;BME280;3226;42.162;24.756;2023-05-14T05:34:30;100341.38;;;11.98;72.02
6387;BME280;3226;42.162;24.756;2023-05-14T05:36:58;100330.78;;;11.89;72.36
6387;BME280;3226;42.162;24.756;2023-05-14T05:39:27;100348.94;;;12.03;71.93
6387;BME280;3226;42.162;24.756;2023-05-14T05:42:00;100343.19;;;11.98;72.49
6387;BME280;3226;42.162;24.756;2023-05-14T05:44:29;100359.66;;;12.11;73.06
6387;BME280;3226;42.162;24.756;2023-05-14T05:46:57;100357.06;;;12.23;71.74
6387;BME280;3226;42.162;24.756;2023-05-14T05:49:25;100353.91;;;12.40;71.30
6387;BME280;3226;42.162;24.756;2023-05-14T05:51:53;100355.34;;;12.44;71.58
6387;BME280;3226;42.162;24.756;2023-05-14T05:54:21;100354.63;;;12.42;72.13
6387;BME280;3226;42.162;24.756;2023-05-14T05:56:51;100350.81;;;12.35;72.46
6387;BME280;3226;42.162;24.756;2023-05-14T05:59:19;100356.44;;;12.42;72.07
6387;BME280;3226;42.162;24.756;2023-05-14T06:01:47;100382.66;;;12.65;70.77
6387;BME280;3226;42.162;24.756;2023-05-14T06:04:15;100364.19;;;12.43;71.48
6387;BME280;3226;42.162;24.756;2023-05-14T06:06:43;100380.16;;;12.52;71.33
6387;BME280;3226;42.162;24.756;2023-05-14T06:09:11;100375.19;;;12.26;72.00
6387;BME280;3226;42.162;24.756;2023-05-14T06:11:39;100387.34;;;12.38;71.17
6387;BME280;3226;42.162;24.756;2023-05-14T06:14:08;100395.22;;;12.50;70.77
6387;BME280;3226;42.162;24.756;2023-05-14T06:16:36;100409.31;;;12.49;70.69
6387;BME280;3226;42.162;24.756;2023-05-14T06:19:04;100399.53;;;12.39;70.22
6387;BME280;3226;42.162;24.756;2023-05-14T06:21:33;100398.56;;;12.40;70.21
6387;BME280;3226;42.162;24.756;2023-05-14T06:24:02;100407.16;;;12.42;68.84
6387;BME280;3226;42.162;24.756;2023-05-14T06:26:30;100404.66;;;12.52;69.13
6387;BME280;3226;42.162;24.756;2023-05-14T06:28:57;100415.75;;;12.44;70.06
6387;BME280;3226;42.162;24.756;2023-05-14T06:31:27;100418.16;;;12.25;70.26
6387;BME280;3226;42.162;24.756;2023-05-14T06:33:55;100421.59;;;12.37;70.73
6387;BME280;3226;42.162;24.756;2023-05-14T06:36:23;100426.03;;;12.48;71.22
6387;BME280;3226;42.162;24.756;2023-05-14T06:38:51;100430.56;;;12.46;71.80
6387;BME280;3226;42.162;24.756;2023-05-14T06:41:19;100444.16;;;12.73;72.22
6387;BME280;3226;42.162;24.756;2023-05-14T06:43:46;100445.94;;;12.84;71.83
6387;BME280;3226;42.162;24.756;2023-05-14T06:46:15;100460.63;;;12.87;74.07
6387;BME280;3226;42.162;24.756;2023-05-14T06:48:44;100472.97;;;12.75;74.58
6387;BME280;3226;42.162;24.756;2023-05-14T06:51:12;100476.78;;;12.60;77.65
6387;BME280;3226;42.162;24.756;2023-05-14T06:53:40;100473.94;;;12.40;82.25
6387;BME280;3226;42.162;24.756;2023-05-14T06:56:08;100473.41;;;12.23;84.76
6387;BME280;3226;42.162;24.756;2023-05-14T06:58:36;100481.34;;;11.99;88.46
6387;BME280;3226;42.162;24.756;2023-05-14T07:01:04;100481.88;;;12.15;89.65
6387;BME280;3226;42.162;24.756;2023-05-14T07:03:32;100478.34;;;12.39;88.54
6387;BME280;3226;42.162;24.756;2023-05-14T07:06:01;100471.41;;;12.38;89.27
6387;BME280;3226;42.162;24.756;2023-05-14T07:08:29;100481.66;;;12.30;90.93
6387;BME280;3226;42.162;24.756;2023-05-14T07:10:57;100472.94;;;12.07;94.78
6387;BME280;3226;42.162;24.756;2023-05-14T07:13:25;100454.31;;;12.21;95.57
6387;BME280;3226;42.162;24.756;2023-05-14T07:15:54;100450.97;;;12.19;95.75
6387;BME280;3226;42.162;24.756;2023-05-14T07:18:22;100452.31;;;12.25;94.49
6387;BME280;3226;42.162;24.756;2023-05-14T07:20:50;100455.19;;;11.97;97.61
6387;BME280;3226;42.162;24.756;2023-05-14T07:23:19;100451.13;;;11.93;99.54
6387;BME280;3226;42.162;24.756;2023-05-14T07:25:47;100447.69;;;11.93;99.85
6387;BME280;3226;42.162;24.756;2023-05-14T07:28:15;100449.75;;;12.00;100.00
6387;BME280;3226;42.162;24.756;2023-05-14T07:30:43;100439.84;;;12.15;98.62
6387;BME280;3226;42.162;24.756;2023-05-14T07:33:11;100435.09;;;12.09;98.87
6387;BME280;3226;42.162;24.756;2023-05-14T07:35:39;100407.22;;;11.84;99.75
6387;BME280;3226;42.162;24.756;2023-05-14T07:38:07;100393.28;;;11.95;100.00
6387;BME280;3226;42.162;24.756;2023-05-14T07:40:37;100408.31;;;11.93;100.00
6387;BME280;3226;42.162;24.756;2023-05-14T07:43:05;100433.66;;;12.05;100.00
6387;BME280;3226;42.162;24.756;2023-05-14T07:45:33;100444.47;;;11.53;100.00
6387;BME280;3226;42.162;24.756;2023-05-14T07:48:03;100451.91;;;11.35;100.00
6387;BME280;3226;42.162;24.756;2023-05-14T07:50:31;100433.53;;;11.11;100.00
6387;BME280;3226;42.162;24.756;2023-05-14T07:52:59;100459.81;;;11.22;100.00
6387;BME280;3226;42.162;24.756;2023-05-14T07:55:27;100457.75;;;11.14;100.00
6387;BME280;3226;42.162;24.756;2023-05-14T07:57:56;100433.19;;;10.91;100.00
6387;BME280;3226;42.162;24.756;2023-05-14T08:00:24;100456.31;;;11.35;100.00
6387;BME280;3226;42.162;24.756;2023-05-14T08:02:53;100442.16;;;11.37;100.00
6387;BME280;3226;42.162;24.756;2023-05-14T08:05:22;100427.56;;;11.09;100.00
6387;BME280;3226;42.162;24.756;2023-05-14T08:07:50;100412.56;;;11.11;100.00
6387;BME280;3226;42.162;24.756;2023-05-14T08:10:18;100446.91;;;11.32;100.00
6387;BME280;3226;42.162;24.756;2023-05-14T08:12:46;100452.41;;;11.40;100.00
6387;BME280;3226;42.162;24.756;2023-05-14T08:15:15;100449.09;;;11.50;100.00
6387;BME280;3226;42.162;24.756;2023-05-14T08:17:43;100448.28;;;11.49;100.00
6387;BME280;3226;42.162;24.756;2023-05-14T08:20:11;100475.84;;;11.66;100.00
6387;BME280;3226;42.162;24.756;2023-05-14T08:22:43;100485.00;;;11.85;100.00
6387;BME280;3226;42.162;24.756;2023-05-14T08:25:13;100495.88;;;11.92;100.00
6387;BME280;3226;42.162;24.756;2023-05-14T08:27:41;100503.69;;;11.80;100.00
6387;BME280;3226;42.162;24.756;2023-05-14T08:30:10;100509.88;;;11.68;100.00
6387;BME280;3226;42.162;24.756;2023-05-14T08:32:40;100511.28;;;11.61;100.00
6387;BME280;3226;42.162;24.756;2023-05-14T08:35:08;100510.09;;;11.65;100.00
6387;BME280;3226;42.162;24.756;2023-05-14T08:37:36;100535.06;;;11.70;100.00
6387;BME280;3226;42.162;24.756;2023-05-14T08:40:05;100529.94;;;11.32;100.00
6387;BME280;3226;42.162;24.756;2023-05-14T08:42:35;100507.88;;;11.10;100.00
6387;BME280;3226;42.162;24.756;2023-05-14T08:45:11;100519.97;;;11.37;100.00
6387;BME280;3226;42.162;24.756;2023-05-14T08:47:43;100527.06;;;11.23;100.00
6387;BME280;3226;42.162;24.756;2023-05-14T08:50:14;100526.41;;;10.69;100.00
6387;BME280;3226;42.162;24.756;2023-05-14T08:52:42;100520.56;;;10.66;100.00
6387;BME280;3226;42.162;24.756;2023-05-14T08:55:11;100532.94;;;10.51;100.00
6387;BME280;3226;42.162;24.756;2023-05-14T08:57:39;100533.44;;;10.43;100.00
6387;BME280;3226;42.162;24.756;2023-05-14T09:00:08;100509.31;;;10.38;100.00
6387;BME280;3226;42.162;24.756;2023-05-14T09:02:39;100485.88;;;10.62;100.00
6387;BME280;3226;42.162;24.756;2023-05-14T09:05:09;100506.56;;;10.91;100.00
6387;BME280;3226;42.162;24.756;2023-05-14T09:07:37;100500.38;;;10.92;100.00
6387;BME280;3226;42.162;24.756;2023-05-14T09:10:06;100487.06;;;10.95;100.00
6387;BME280;3226;42.162;24.756;2023-05-14T09:12:35;100501.34;;;10.91;100.00
6387;BME280;3226;42.162;24.756;2023-05-14T09:15:04;100501.44;;;10.90;100.00
6387;BME280;3226;42.162;24.756;2023-05-14T09:17:33;100500.13;;;11.08;100.00
6387;BME280;3226;42.162;24.756;2023-05-14T09:20:01;100502.41;;;11.13;100.00
6387;BME280;3226;42.162;24.756;2023-05-14T09:22:31;100499.78;;;11.13;100.00
6387;BME280;3226;42.162;24.756;2023-05-14T09:25:03;100497.78;;;10.92;100.00
6387;BME280;3226;42.162;24.756;2023-05-14T09:27:32;100498.53;;;10.81;100.00
6387;BME280;3226;42.162;24.756;2023-05-14T09:30:07;100491.19;;;10.74;100.00
6387;BME280;3226;42.162;24.756;2023-05-14T09:32:37;100475.31;;;10.51;100.00
6387;BME280;3226;42.162;24.756;2023-05-14T09:35:13;100491.94;;;10.24;100.00
6387;BME280;3226;42.162;24.756;2023-05-14T09:37:46;100492.47;;;10.42;100.00
6387;BME280;3226;42.162;24.756;2023-05-14T09:40:15;100485.44;;;10.55;100.00
6387;BME280;3226;42.162;24.756;2023-05-14T09:42:44;100493.06;;;10.84;100.00
6387;BME280;3226;42.162;24.756;2023-05-14T09:45:12;100489.19;;;10.77;100.00
6387;BME280;3226;42.162;24.756;2023-05-14T09:47:40;100468.03;;;10.67;100.00
6387;BME280;3226;42.162;24.756;2023-05-14T09:50:08;100461.31;;;10.76;100.00
6387;BME280;3226;42.162;24.756;2023-05-14T09:52:37;100444.94;;;10.85;100.00
6387;BME280;3226;42.162;24.756;2023-05-14T09:55:07;100442.72;;;10.55;100.00
6387;BME280;3226;42.162;24.756;2023-05-14T09:57:38;100442.91;;;10.26;100.00
6387;BME280;3226;42.162;24.756;2023-05-14T10:00:07;100442.28;;;10.35;100.00
6387;BME280;3226;42.162;24.756;2023-05-14T10:02:36;100441.06;;;10.41;100.00
6387;BME280;3226;42.162;24.756;2023-05-14T10:05:07;100436.59;;;10.67;100.00
6387;BME280;3226;42.162;24.756;2023-05-14T10:07:38;100434.34;;;10.50;100.00
6387;BME280;3226;42.162;24.756;2023-05-14T10:10:14;100432.66;;;10.62;100.00
6387;BME280;3226;42.162;24.756;2023-05-14T10:12:47;100448.81;;;10.93;100.00
6387;BME280;3226;42.162;24.756;2023-05-14T10:15:19;100441.22;;;11.14;100.00
6387;BME280;3226;42.162;24.756;2023-05-14T10:17:54;100443.91;;;11.37;100.00
6387;BME280;3226;42.162;24.756;2023-05-14T10:20:23;100445.41;;;11.28;100.00
6387;BME280;3226;42.162;24.756;2023-05-14T10:22:53;100448.00;;;11.17;100.00
6387;BME280;3226;42.162;24.756;2023-05-14T10:25:23;100441.34;;;10.99;100.00
6387;BME280;3226;42.162;24.756;2023-05-14T10:27:52;100442.06;;;10.64;100.00
6387;BME280;3226;42.162;24.756;2023-05-14T10:30:20;100447.91;;;10.81;100.00
6387;BME280;3226;42.162;24.756;2023-05-14T10:33:05;100449.88;;;10.90;100.00
6387;BME280;3226;42.162;24.756;2023-05-14T10:35:51;100439.50;;;10.89;100.00
6387;BME280;3226;42.162;24.756;2023-05-14T10:38:22;100430.22;;;10.96;100.00
6387;BME280;3226;42.162;24.756;2023-05-14T10:40:56;100411.06;;;10.95;100.00
6387;BME280;3226;42.162;24.756;2023-05-14T10:43:26;100423.22;;;10.59;100.00
6387;BME280;3226;42.162;24.756;2023-05-14T10:45:55;100412.53;;;10.62;100.00
6387;BME280;3226;42.162;24.756;2023-05-14T10:48:24;100406.13;;;10.66;100.00
6387;BME280;3226;42.162;24.756;2023-05-14T10:50:52;100385.50;;;10.62;100.00
6387;BME280;3226;42.162;24.756;2023-05-14T10:53:30;100400.09;;;10.90;100.00
6387;BME280;3226;42.162;24.756;2023-05-14T10:56:04;100397.63;;;11.24;100.00
6387;BME280;3226;42.162;24.756;2023-05-14T10:58:35;100391.63;;;11.47;100.00
6387;BME280;3226;42.162;24.756;2023-05-14T11:01:05;100392.28;;;11.73;100.00
6387;BME280;3226;42.162;24.756;2023-05-14T11:03:38;100368.75;;;11.49;100.00
6387;BME280;3226;42.162;24.756;2023-05-14T11:06:08;100385.75;;;11.79;100.00
6387;BME280;3226;42.162;24.756;2023-05-14T11:08:36;100389.81;;;11.83;100.00
6387;BME280;3226;42.162;24.756;2023-05-14T11:11:06;100399.91;;;11.76;100.00
6387;BME280;3226;42.162;24.756;2023-05-14T11:13:34;100378.28;;;11.50;100.00
6387;BME280;3226;42.162;24.756;2023-05-14T11:16:02;100375.81;;;11.60;100.00
6387;BME280;3226;42.162;24.756;2023-05-14T11:18:52;100367.63;;;11.87;100.00
6387;BME280;3226;42.162;24.756;2023-05-14T11:21:20;100358.22;;;11.96;100.00
6387;BME280;3226;42.162;24.756;2023-05-14T11:23:48;100359.19;;;12.18;100.00
6387;BME280;3226;42.162;24.756;2023-05-14T11:26:17;100360.50;;;12.46;100.00
6387;BME280;3226;42.162;24.756;2023-05-14T11:28:47;100365.28;;;12.41;100.00
6387;BME280;3226;42.162;24.756;2023-05-14T11:31:15;100372.44;;;12.16;100.00
6387;BME280;3226;42.162;24.756;2023-05-14T11:33:44;100359.31;;;12.05;100.00
6387;BME280;3226;42.162;24.756;2023-05-14T11:36:12;100336.75;;;11.91;100.00
6387;BME280;3226;42.162;24.756;2023-05-14T11:38:45;100342.97;;;12.12;100.00
6387;BME280;3226;42.162;24.756;2023-05-14T11:41:17;100363.81;;;12.37;100.00
6387;BME280;3226;42.162;24.756;2023-05-14T11:43:47;100374.31;;;12.37;100.00
6387;BME280;3226;42.162;24.756;2023-05-14T11:46:15;100373.47;;;12.48;100.00
6387;BME280;3226;42.162;24.756;2023-05-14T11:48:44;100376.84;;;12.38;100.00
6387;BME280;3226;42.162;24.756;2023-05-14T11:51:12;100371.97;;;12.11;100.00
6387;BME280;3226;42.162;24.756;2023-05-14T11:53:40;100363.63;;;12.06;100.00
6387;BME280;3226;42.162;24.756;2023-05-14T11:56:08;100367.31;;;12.03;100.00
6387;BME280;3226;42.162;24.756;2023-05-14T11:58:38;100373.53;;;12.25;100.00
6387;BME280;3226;42.162;24.756;2023-05-14T12:01:12;100365.38;;;12.39;100.00
6387;BME280;3226;42.162;24.756;2023-05-14T12:03:40;100365.28;;;12.41;100.00
6387;BME280;3226;42.162;24.756;2023-05-14T12:06:09;100363.25;;;12.33;100.00
6387;BME280;3226;42.162;24.756;2023-05-14T12:08:37;100372.75;;;12.68;100.00
6387;BME280;3226;42.162;24.756;2023-05-14T12:11:05;100374.69;;;12.43;100.00
6387;BME280;3226;42.162;24.756;2023-05-14T12:13:33;100368.97;;;12.15;100.00
6387;BME280;3226;42.162;24.756;2023-05-14T12:16:02;100335.16;;;11.88;100.00
6387;BME280;3226;42.162;24.756;2023-05-14T12:18:31;100358.22;;;12.07;100.00
6387;BME280;3226;42.162;24.756;2023-05-14T12:21:04;100351.09;;;12.21;100.00
6387;BME280;3226;42.162;24.756;2023-05-14T12:23:34;100346.28;;;12.37;100.00
6387;BME280;3226;42.162;24.756;2023-05-14T12:26:02;100334.31;;;12.56;100.00
6387;BME280;3226;42.162;24.756;2023-05-14T12:28:32;100335.81;;;12.81;100.00
6387;BME280;3226;42.162;24.756;2023-05-14T12:31:05;100341.31;;;12.78;100.00
6387;BME280;3226;42.162;24.756;2023-05-14T12:33:33;100333.59;;;12.54;100.00
6387;BME280;3226;42.162;24.756;2023-05-14T12:36:01;100318.59;;;12.33;100.00
6387;BME280;3226;42.162;24.756;2023-05-14T12:38:47;100316.47;;;12.27;100.00
6387;BME280;3226;42.162;24.756;2023-05-14T12:41:15;100304.81;;;12.52;100.00
6387;BME280;3226;42.162;24.756;2023-05-14T12:43:44;100301.75;;;12.36;100.00
6387;BME280;3226;42.162;24.756;2023-05-14T12:46:15;100286.16;;;12.23;100.00
6387;BME280;3226;42.162;24.756;2023-05-14T12:48:43;100280.88;;;12.34;100.00
6387;BME280;3226;42.162;24.756;2023-05-14T12:51:12;100274.13;;;12.53;100.00
6387;BME280;3226;42.162;24.756;2023-05-14T12:53:40;100273.84;;;12.67;100.00
6387;BME280;3226;42.162;24.756;2023-05-14T12:56:08;100283.41;;;12.68;100.00
6387;BME280;3226;42.162;24.756;2023-05-14T12:58:36;100283.75;;;12.75;100.00
6387;BME280;3226;42.162;24.756;2023-05-14T13:01:05;100283.25;;;12.70;100.00
6387;BME280;3226;42.162;24.756;2023-05-14T13:03:35;100284.47;;;12.66;100.00
6387;BME280;3226;42.162;24.756;2023-05-14T13:06:03;100277.91;;;12.71;100.00